sensor_id;sensor_type;location;lat;lon;timestamp;P1;durP1;ratioP1;P2;durP2;ratioP2
28605;SDS011;46498;49.968;7.754;2022-07-29T00:04:03;8.80;;;1.83;;
28605;SDS011;46498;49.968;7.754;2022-07-29T00:09:04;3.60;;;1.50;;
28605;SDS011;46498;49.968;7.754;2022-07-29T00:14:05;5.78;;;1.95;;
28605;SDS011;46498;49.968;7.754;2022-07-29T00:19:06;2.75;;;1.40;;
28605;SDS011;46498;49.968;7.754;2022-07-29T00:24:08;2.33;;;1.53;;
28605;SDS011;46498;49.968;7.754;2022-07-29T00:29:09;5.47;;;1.50;;
28605;SDS011;46498;49.968;7.754;2022-07-29T00:34:40;3.72;;;1.80;;
28605;SDS011;46498;49.968;7.754;2022-07-29T00:39:59;5.53;;;1.70;;
28605;SDS011;46498;49.968;7.754;2022-07-29T00:45:00;6.45;;;2.03;;
28605;SDS011;46498;49.968;7.754;2022-07-29T00:50:01;3.08;;;1.67;;
28605;SDS011;46498;49.968;7.754;2022-07-29T00:55:06;5.78;;;1.80;;
28605;SDS011;46498;49.968;7.754;2022-07-29T01:00:10;5.43;;;1.50;;
28605;SDS011;46498;49.968;7.754;2022-07-29T01:05:14;3.00;;;1.65;;
28605;SDS011;46498;49.968;7.754;2022-07-29T01:10:21;3.50;;;1.70;;
28605;SDS011;46498;49.968;7.754;2022-07-29T01:15:23;4.80;;;1.73;;
28605;SDS011;46498;49.968;7.754;2022-07-29T01:34:41;7.00;;;2.03;;
28605;SDS011;46498;49.968;7.754;2022-07-29T01:40:31;1.70;;;1.23;;
28605;SDS011;46498;49.968;7.754;2022-07-29T01:45:48;6.95;;;1.65;;
28605;SDS011;46498;49.968;7.754;2022-07-29T01:50:58;3.10;;;1.80;;
28605;SDS011;46498;49.968;7.754;2022-07-29T01:56:05;3.75;;;1.87;;
28605;SDS011;46498;49.968;7.754;2022-07-29T02:01:09;5.35;;;1.92;;
28605;SDS011;46498;49.968;7.754;2022-07-29T02:06:13;3.50;;;1.73;;
28605;SDS011;46498;49.968;7.754;2022-07-29T02:11:19;7.62;;;2.37;;
28605;SDS011;46498;49.968;7.754;2022-07-29T02:16:20;6.70;;;2.28;;
28605;SDS011;46498;49.968;7.754;2022-07-29T02:21:24;6.57;;;2.90;;
28605;SDS011;46498;49.968;7.754;2022-07-29T02:26:27;6.45;;;2.40;;
28605;SDS011;46498;49.968;7.754;2022-07-29T02:31:32;5.55;;;1.60;;
28605;SDS011;46498;49.968;7.754;2022-07-29T02:36:35;3.97;;;1.77;;
28605;SDS011;46498;49.968;7.754;2022-07-29T02:41:41;5.53;;;2.10;;
28605;SDS011;46498;49.968;7.754;2022-07-29T02:46:54;3.03;;;1.50;;
28605;SDS011;46498;49.968;7.754;2022-07-29T02:52:10;5.82;;;1.90;;
28605;SDS011;46498;49.968;7.754;2022-07-29T02:57:19;4.47;;;2.22;;
28605;SDS011;46498;49.968;7.754;2022-07-29T03:02:23;4.00;;;1.77;;
28605;SDS011;46498;49.968;7.754;2022-07-29T03:07:27;5.12;;;1.90;;
28605;SDS011;46498;49.968;7.754;2022-07-29T03:12:28;7.50;;;2.03;;
28605;SDS011;46498;49.968;7.754;2022-07-29T03:17:31;7.90;;;2.13;;
28605;SDS011;46498;49.968;7.754;2022-07-29T03:22:32;7.18;;;2.08;;
28605;SDS011;46498;49.968;7.754;2022-07-29T03:27:39;5.15;;;1.90;;
28605;SDS011;46498;49.968;7.754;2022-07-29T03:32:40;4.93;;;1.95;;
28605;SDS011;46498;49.968;7.754;2022-07-29T03:37:45;3.92;;;1.73;;
28605;SDS011;46498;49.968;7.754;2022-07-29T03:42:46;3.37;;;2.10;;
28605;SDS011;46498;49.968;7.754;2022-07-29T03:47:50;5.32;;;2.15;;
28605;SDS011;46498;49.968;7.754;2022-07-29T03:53:14;4.95;;;2.15;;
28605;SDS011;46498;49.968;7.754;2022-07-29T03:58:16;4.20;;;2.42;;
28605;SDS011;46498;49.968;7.754;2022-07-29T04:03:19;6.78;;;2.40;;
28605;SDS011;46498;49.968;7.754;2022-07-29T04:08:20;3.10;;;2.05;;
28605;SDS011;46498;49.968;7.754;2022-07-29T04:13:21;9.40;;;2.40;;
28605;SDS011;46498;49.968;7.754;2022-07-29T04:18:22;3.22;;;2.20;;
28605;SDS011;46498;49.968;7.754;2022-07-29T04:23:23;5.50;;;2.40;;
28605;SDS011;46498;49.968;7.754;2022-07-29T04:28:24;8.23;;;2.55;;
28605;SDS011;46498;49.968;7.754;2022-07-29T04:33:26;6.97;;;2.30;;
28605;SDS011;46498;49.968;7.754;2022-07-29T04:38:27;5.03;;;2.20;;
28605;SDS011;46498;49.968;7.754;2022-07-29T04:43:28;9.35;;;2.33;;
28605;SDS011;46498;49.968;7.754;2022-07-29T04:48:37;8.48;;;2.22;;
28605;SDS011;46498;49.968;7.754;2022-07-29T04:53:38;8.45;;;2.50;;
28605;SDS011;46498;49.968;7.754;2022-07-29T04:58:39;6.15;;;2.42;;
28605;SDS011;46498;49.968;7.754;2022-07-29T05:03:40;6.15;;;2.65;;
28605;SDS011;46498;49.968;7.754;2022-07-29T05:08:41;5.60;;;2.45;;
28605;SDS011;46498;49.968;7.754;2022-07-29T05:13:42;6.30;;;2.22;;
28605;SDS011;46498;49.968;7.754;2022-07-29T05:18:47;7.05;;;2.30;;
28605;SDS011;46498;49.968;7.754;2022-07-29T05:23:48;5.85;;;2.78;;
28605;SDS011;46498;49.968;7.754;2022-07-29T05:28:49;5.68;;;2.80;;
28605;SDS011;46498;49.968;7.754;2022-07-29T05:33:51;7.55;;;2.60;;
28605;SDS011;46498;49.968;7.754;2022-07-29T05:38:52;10.98;;;2.85;;
28605;SDS011;46498;49.968;7.754;2022-07-29T05:43:53;8.90;;;3.22;;
28605;SDS011;46498;49.968;7.754;2022-07-29T05:48:54;9.18;;;2.90;;
28605;SDS011;46498;49.968;7.754;2022-07-29T05:53:55;5.70;;;2.60;;
28605;SDS011;46498;49.968;7.754;2022-07-29T05:58:56;9.38;;;2.60;;
28605;SDS011;46498;49.968;7.754;2022-07-29T06:03:57;10.10;;;2.83;;
28605;SDS011;46498;49.968;7.754;2022-07-29T06:08:58;9.90;;;2.95;;
28605;SDS011;46498;49.968;7.754;2022-07-29T06:13:59;14.63;;;3.08;;
28605;SDS011;46498;49.968;7.754;2022-07-29T06:19:00;10.40;;;2.95;;
28605;SDS011;46498;49.968;7.754;2022-07-29T06:24:01;7.30;;;2.58;;
28605;SDS011;46498;49.968;7.754;2022-07-29T06:29:02;4.65;;;2.17;;
28605;SDS011;46498;49.968;7.754;2022-07-29T06:34:03;9.40;;;2.83;;
28605;SDS011;46498;49.968;7.754;2022-07-29T06:39:05;8.48;;;2.90;;
28605;SDS011;46498;49.968;7.754;2022-07-29T06:49:09;7.22;;;3.00;;
28605;SDS011;46498;49.968;7.754;2022-07-29T06:54:11;6.62;;;2.67;;
28605;SDS011;46498;49.968;7.754;2022-07-29T06:59:12;8.63;;;3.30;;
28605;SDS011;46498;49.968;7.754;2022-07-29T07:04:13;13.20;;;2.87;;
28605;SDS011;46498;49.968;7.754;2022-07-29T07:09:14;5.15;;;2.30;;
28605;SDS011;46498;49.968;7.754;2022-07-29T07:14:15;9.20;;;3.10;;
28605;SDS011;46498;49.968;7.754;2022-07-29T07:19:17;14.20;;;3.35;;
28605;SDS011;46498;49.968;7.754;2022-07-29T07:24:19;7.97;;;2.80;;
28605;SDS011;46498;49.968;7.754;2022-07-29T07:29:20;14.02;;;2.92;;
28605;SDS011;46498;49.968;7.754;2022-07-29T07:34:21;6.65;;;2.95;;
28605;SDS011;46498;49.968;7.754;2022-07-29T07:39:30;7.25;;;3.03;;
28605;SDS011;46498;49.968;7.754;2022-07-29T07:44:31;12.25;;;2.95;;
28605;SDS011;46498;49.968;7.754;2022-07-29T07:49:32;6.65;;;2.97;;
28605;SDS011;46498;49.968;7.754;2022-07-29T07:54:33;11.73;;;3.20;;
28605;SDS011;46498;49.968;7.754;2022-07-29T07:59:34;10.10;;;3.10;;
28605;SDS011;46498;49.968;7.754;2022-07-29T08:04:35;7.65;;;3.40;;
28605;SDS011;46498;49.968;7.754;2022-07-29T08:09:36;10.35;;;3.25;;
28605;SDS011;46498;49.968;7.754;2022-07-29T08:14:37;8.75;;;3.10;;
28605;SDS011;46498;49.968;7.754;2022-07-29T08:19:38;5.45;;;3.00;;
28605;SDS011;46498;49.968;7.754;2022-07-29T08:24:39;9.45;;;2.65;;
28605;SDS011;46498;49.968;7.754;2022-07-29T08:29:43;9.20;;;3.05;;
28605;SDS011;46498;49.968;7.754;2022-07-29T08:34:44;7.85;;;3.17;;
28605;SDS011;46498;49.968;7.754;2022-07-29T08:44:47;6.25;;;2.85;;
28605;SDS011;46498;49.968;7.754;2022-07-29T08:49:49;10.73;;;3.17;;
28605;SDS011;46498;49.968;7.754;2022-07-29T08:54:50;8.27;;;3.13;;
28605;SDS011;46498;49.968;7.754;2022-07-29T08:59:53;11.20;;;3.20;;
28605;SDS011;46498;49.968;7.754;2022-07-29T09:04:56;11.85;;;3.42;;
28605;SDS011;46498;49.968;7.754;2022-07-29T09:10:00;5.85;;;3.15;;
28605;SDS011;46498;49.968;7.754;2022-07-29T09:15:01;13.17;;;3.13;;
28605;SDS011;46498;49.968;7.754;2022-07-29T09:20:10;9.48;;;3.37;;
28605;SDS011;46498;49.968;7.754;2022-07-29T09:25:13;13.65;;;3.47;;
28605;SDS011;46498;49.968;7.754;2022-07-29T09:30:14;7.62;;;3.08;;
28605;SDS011;46498;49.968;7.754;2022-07-29T09:35:25;7.40;;;2.95;;
28605;SDS011;46498;49.968;7.754;2022-07-29T09:40:27;12.50;;;3.30;;
28605;SDS011;46498;49.968;7.754;2022-07-29T09:45:29;6.67;;;3.00;;
28605;SDS011;46498;49.968;7.754;2022-07-29T09:50:38;6.55;;;3.50;;
28605;SDS011;46498;49.968;7.754;2022-07-29T09:55:50;7.82;;;3.25;;
28605;SDS011;46498;49.968;7.754;2022-07-29T10:00:52;15.57;;;3.08;;
28605;SDS011;46498;49.968;7.754;2022-07-29T10:06:05;22.25;;;4.03;;
28605;SDS011;46498;49.968;7.754;2022-07-29T10:11:11;5.03;;;3.17;;
28605;SDS011;46498;49.968;7.754;2022-07-29T10:16:14;10.20;;;2.92;;
28605;SDS011;46498;49.968;7.754;2022-07-29T10:21:17;5.45;;;2.95;;
28605;SDS011;46498;49.968;7.754;2022-07-29T10:26:36;6.93;;;2.97;;
28605;SDS011;46498;49.968;7.754;2022-07-29T10:31:48;5.75;;;3.00;;
28605;SDS011;46498;49.968;7.754;2022-07-29T10:37:12;7.30;;;2.80;;
28605;SDS011;46498;49.968;7.754;2022-07-29T10:42:36;6.07;;;3.35;;
28605;SDS011;46498;49.968;7.754;2022-07-29T10:47:41;7.80;;;3.00;;
28605;SDS011;46498;49.968;7.754;2022-07-29T10:52:52;8.40;;;3.20;;
28605;SDS011;46498;49.968;7.754;2022-07-29T10:58:13;7.45;;;3.25;;
28605;SDS011;46498;49.968;7.754;2022-07-29T11:20:46;7.75;;;3.22;;
28605;SDS011;46498;49.968;7.754;2022-07-29T11:31:34;6.10;;;2.65;;
28605;SDS011;46498;49.968;7.754;2022-07-29T11:37:04;9.93;;;3.60;;
28605;SDS011;46498;49.968;7.754;2022-07-29T11:47:55;8.20;;;2.97;;
28605;SDS011;46498;49.968;7.754;2022-07-29T11:53:30;5.22;;;2.60;;
28605;SDS011;46498;49.968;7.754;2022-07-29T12:12:05;12.30;;;3.40;;
28605;SDS011;46498;49.968;7.754;2022-07-29T12:17:08;9.88;;;3.58;;
28605;SDS011;46498;49.968;7.754;2022-07-29T12:22:35;8.45;;;3.00;;
28605;SDS011;46498;49.968;7.754;2022-07-29T12:27:38;7.65;;;3.10;;
28605;SDS011;46498;49.968;7.754;2022-07-29T12:32:42;9.25;;;3.42;;
28605;SDS011;46498;49.968;7.754;2022-07-29T12:37:47;5.18;;;3.33;;
28605;SDS011;46498;49.968;7.754;2022-07-29T12:49:47;9.52;;;3.53;;
28605;SDS011;46498;49.968;7.754;2022-07-29T12:54:49;8.68;;;3.45;;
28605;SDS011;46498;49.968;7.754;2022-07-29T13:00:08;7.22;;;3.35;;
28605;SDS011;46498;49.968;7.754;2022-07-29T13:05:11;9.23;;;3.72;;
28605;SDS011;46498;49.968;7.754;2022-07-29T13:10:14;4.97;;;3.37;;
28605;SDS011;46498;49.968;7.754;2022-07-29T13:15:18;7.03;;;3.40;;
28605;SDS011;46498;49.968;7.754;2022-07-29T13:20:23;8.88;;;3.47;;
28605;SDS011;46498;49.968;7.754;2022-07-29T13:25:26;4.82;;;3.53;;
28605;SDS011;46498;49.968;7.754;2022-07-29T13:30:32;6.80;;;3.25;;
28605;SDS011;46498;49.968;7.754;2022-07-29T13:35:33;3.78;;;2.75;;
28605;SDS011;46498;49.968;7.754;2022-07-29T13:40:40;9.57;;;3.62;;
28605;SDS011;46498;49.968;7.754;2022-07-29T13:45:42;7.12;;;3.42;;
28605;SDS011;46498;49.968;7.754;2022-07-29T13:50:43;8.52;;;3.05;;
28605;SDS011;46498;49.968;7.754;2022-07-29T13:55:44;6.95;;;3.15;;
28605;SDS011;46498;49.968;7.754;2022-07-29T14:00:45;6.00;;;3.10;;
28605;SDS011;46498;49.968;7.754;2022-07-29T14:05:47;9.95;;;3.50;;
28605;SDS011;46498;49.968;7.754;2022-07-29T14:10:48;6.97;;;2.90;;
28605;SDS011;46498;49.968;7.754;2022-07-29T14:15:52;5.12;;;3.17;;
28605;SDS011;46498;49.968;7.754;2022-07-29T14:20:53;5.15;;;3.65;;
28605;SDS011;46498;49.968;7.754;2022-07-29T14:25:54;4.75;;;2.83;;
28605;SDS011;46498;49.968;7.754;2022-07-29T14:30:55;7.50;;;3.60;;
28605;SDS011;46498;49.968;7.754;2022-07-29T14:35:56;5.22;;;3.58;;
28605;SDS011;46498;49.968;7.754;2022-07-29T14:41:01;11.57;;;3.75;;
28605;SDS011;46498;49.968;7.754;2022-07-29T14:46:03;7.25;;;3.42;;
28605;SDS011;46498;49.968;7.754;2022-07-29T14:51:08;7.12;;;3.30;;
28605;SDS011;46498;49.968;7.754;2022-07-29T14:56:10;7.65;;;3.50;;
28605;SDS011;46498;49.968;7.754;2022-07-29T15:01:36;6.12;;;3.47;;
28605;SDS011;46498;49.968;7.754;2022-07-29T15:06:37;4.93;;;3.40;;
28605;SDS011;46498;49.968;7.754;2022-07-29T15:11:38;4.85;;;3.10;;
28605;SDS011;46498;49.968;7.754;2022-07-29T15:16:39;7.30;;;3.05;;
28605;SDS011;46498;49.968;7.754;2022-07-29T15:21:47;10.20;;;3.50;;
28605;SDS011;46498;49.968;7.754;2022-07-29T15:26:49;11.05;;;3.78;;
28605;SDS011;46498;49.968;7.754;2022-07-29T15:31:50;4.43;;;2.80;;
28605;SDS011;46498;49.968;7.754;2022-07-29T15:36:51;6.40;;;3.25;;
28605;SDS011;46498;49.968;7.754;2022-07-29T15:41:54;5.20;;;3.40;;
28605;SDS011;46498;49.968;7.754;2022-07-29T15:46:55;8.40;;;3.12;;
28605;SDS011;46498;49.968;7.754;2022-07-29T15:52:08;6.47;;;2.92;;
28605;SDS011;46498;49.968;7.754;2022-07-29T15:57:12;11.27;;;4.28;;
28605;SDS011;46498;49.968;7.754;2022-07-29T16:02:13;11.60;;;3.37;;
28605;SDS011;46498;49.968;7.754;2022-07-29T16:07:15;6.15;;;3.28;;
28605;SDS011;46498;49.968;7.754;2022-07-29T16:12:16;8.32;;;3.78;;
28605;SDS011;46498;49.968;7.754;2022-07-29T16:17:17;9.70;;;3.60;;
28605;SDS011;46498;49.968;7.754;2022-07-29T16:22:18;6.50;;;4.00;;
28605;SDS011;46498;49.968;7.754;2022-07-29T16:27:19;12.93;;;3.90;;
28605;SDS011;46498;49.968;7.754;2022-07-29T16:32:24;8.15;;;3.50;;
28605;SDS011;46498;49.968;7.754;2022-07-29T16:37:25;7.62;;;3.67;;
28605;SDS011;46498;49.968;7.754;2022-07-29T16:42:29;10.48;;;3.97;;
28605;SDS011;46498;49.968;7.754;2022-07-29T16:47:47;6.22;;;3.58;;
28605;SDS011;46498;49.968;7.754;2022-07-29T16:52:48;7.57;;;3.57;;
28605;SDS011;46498;49.968;7.754;2022-07-29T16:57:49;5.75;;;3.97;;
28605;SDS011;46498;49.968;7.754;2022-07-29T17:02:52;9.70;;;4.15;;
28605;SDS011;46498;49.968;7.754;2022-07-29T17:07:52;9.57;;;3.67;;
28605;SDS011;46498;49.968;7.754;2022-07-29T17:12:54;14.35;;;3.50;;
28605;SDS011;46498;49.968;7.754;2022-07-29T17:17:55;7.55;;;3.70;;
28605;SDS011;46498;49.968;7.754;2022-07-29T17:22:57;5.75;;;3.60;;
28605;SDS011;46498;49.968;7.754;2022-07-29T17:27:58;5.18;;;3.70;;
28605;SDS011;46498;49.968;7.754;2022-07-29T17:33:01;7.30;;;3.65;;
28605;SDS011;46498;49.968;7.754;2022-07-29T17:38:02;10.20;;;4.32;;
28605;SDS011;46498;49.968;7.754;2022-07-29T17:43:03;7.35;;;3.53;;
28605;SDS011;46498;49.968;7.754;2022-07-29T17:48:04;7.80;;;3.53;;
28605;SDS011;46498;49.968;7.754;2022-07-29T17:53:06;6.40;;;3.70;;
28605;SDS011;46498;49.968;7.754;2022-07-29T17:58:17;7.55;;;4.07;;
28605;SDS011;46498;49.968;7.754;2022-07-29T18:03:18;6.15;;;3.00;;
28605;SDS011;46498;49.968;7.754;2022-07-29T18:08:19;6.70;;;3.73;;
28605;SDS011;46498;49.968;7.754;2022-07-29T18:13:20;5.82;;;3.40;;
28605;SDS011;46498;49.968;7.754;2022-07-29T18:18:21;5.40;;;3.30;;
28605;SDS011;46498;49.968;7.754;2022-07-29T18:23:22;9.27;;;3.50;;
28605;SDS011;46498;49.968;7.754;2022-07-29T18:28:23;9.27;;;3.42;;
28605;SDS011;46498;49.968;7.754;2022-07-29T18:33:24;8.63;;;3.55;;
28605;SDS011;46498;49.968;7.754;2022-07-29T18:38:25;8.18;;;3.37;;
28605;SDS011;46498;49.968;7.754;2022-07-29T18:43:26;10.70;;;3.40;;
28605;SDS011;46498;49.968;7.754;2022-07-29T18:48:27;10.15;;;3.08;;
28605;SDS011;46498;49.968;7.754;2022-07-29T18:53:28;15.77;;;3.80;;
28605;SDS011;46498;49.968;7.754;2022-07-29T18:58:29;9.25;;;3.75;;
28605;SDS011;46498;49.968;7.754;2022-07-29T19:03:33;10.05;;;4.00;;
28605;SDS011;46498;49.968;7.754;2022-07-29T19:08:34;7.03;;;3.60;;
28605;SDS011;46498;49.968;7.754;2022-07-29T19:13:35;8.00;;;3.92;;
28605;SDS011;46498;49.968;7.754;2022-07-29T19:18:37;13.17;;;4.20;;
28605;SDS011;46498;49.968;7.754;2022-07-29T19:23:38;8.30;;;3.40;;
28605;SDS011;46498;49.968;7.754;2022-07-29T19:29:07;8.45;;;3.62;;
28605;SDS011;46498;49.968;7.754;2022-07-29T19:34:08;11.27;;;3.28;;
28605;SDS011;46498;49.968;7.754;2022-07-29T19:39:10;8.52;;;3.87;;
28605;SDS011;46498;49.968;7.754;2022-07-29T19:44:11;6.80;;;3.55;;
28605;SDS011;46498;49.968;7.754;2022-07-29T19:49:12;7.70;;;3.17;;
28605;SDS011;46498;49.968;7.754;2022-07-29T19:54:13;7.75;;;3.12;;
28605;SDS011;46498;49.968;7.754;2022-07-29T19:59:15;17.47;;;3.40;;
28605;SDS011;46498;49.968;7.754;2022-07-29T20:04:16;9.48;;;3.00;;
28605;SDS011;46498;49.968;7.754;2022-07-29T20:09:17;6.60;;;2.67;;
28605;SDS011;46498;49.968;7.754;2022-07-29T20:14:21;6.25;;;2.92;;
28605;SDS011;46498;49.968;7.754;2022-07-29T20:19:22;5.68;;;2.97;;
28605;SDS011;46498;49.968;7.754;2022-07-29T20:24:23;7.20;;;3.12;;
28605;SDS011;46498;49.968;7.754;2022-07-29T20:29:25;7.55;;;2.58;;
28605;SDS011;46498;49.968;7.754;2022-07-29T20:34:26;7.32;;;2.90;;
28605;SDS011;46498;49.968;7.754;2022-07-29T20:39:27;4.30;;;2.58;;
28605;SDS011;46498;49.968;7.754;2022-07-29T20:44:28;6.75;;;3.08;;
28605;SDS011;46498;49.968;7.754;2022-07-29T20:49:29;6.18;;;2.50;;
28605;SDS011;46498;49.968;7.754;2022-07-29T20:54:30;6.55;;;2.62;;
28605;SDS011;46498;49.968;7.754;2022-07-29T20:59:32;10.73;;;2.87;;
28605;SDS011;46498;49.968;7.754;2022-07-29T21:04:33;7.35;;;2.37;;
28605;SDS011;46498;49.968;7.754;2022-07-29T21:09:36;4.25;;;2.28;;
28605;SDS011;46498;49.968;7.754;2022-07-29T21:14:37;3.67;;;2.12;;
28605;SDS011;46498;49.968;7.754;2022-07-29T21:19:47;6.03;;;2.70;;
28605;SDS011;46498;49.968;7.754;2022-07-29T21:24:51;9.20;;;2.67;;
28605;SDS011;46498;49.968;7.754;2022-07-29T21:29:53;7.40;;;2.08;;
28605;SDS011;46498;49.968;7.754;2022-07-29T21:34:53;6.90;;;2.37;;
28605;SDS011;46498;49.968;7.754;2022-07-29T21:39:54;5.85;;;2.78;;
28605;SDS011;46498;49.968;7.754;2022-07-29T21:44:55;10.05;;;2.60;;
28605;SDS011;46498;49.968;7.754;2022-07-29T21:49:57;8.25;;;2.60;;
28605;SDS011;46498;49.968;7.754;2022-07-29T21:54:57;6.72;;;2.47;;
28605;SDS011;46498;49.968;7.754;2022-07-29T21:59:58;7.25;;;2.40;;
28605;SDS011;46498;49.968;7.754;2022-07-29T22:05:12;5.65;;;2.20;;
28605;SDS011;46498;49.968;7.754;2022-07-29T22:10:14;8.55;;;2.60;;
28605;SDS011;46498;49.968;7.754;2022-07-29T22:15:15;8.50;;;3.08;;
28605;SDS011;46498;49.968;7.754;2022-07-29T22:20:16;6.80;;;2.22;;
28605;SDS011;46498;49.968;7.754;2022-07-29T22:25:18;7.57;;;2.60;;
28605;SDS011;46498;49.968;7.754;2022-07-29T22:30:20;5.40;;;2.30;;
28605;SDS011;46498;49.968;7.754;2022-07-29T22:35:21;6.30;;;2.87;;
28605;SDS011;46498;49.968;7.754;2022-07-29T22:40:21;5.20;;;2.30;;
28605;SDS011;46498;49.968;7.754;2022-07-29T22:45:31;6.57;;;2.17;;
28605;SDS011;46498;49.968;7.754;2022-07-29T22:50:32;7.03;;;2.72;;
28605;SDS011;46498;49.968;7.754;2022-07-29T22:55:33;6.32;;;2.40;;
28605;SDS011;46498;49.968;7.754;2022-07-29T23:00:34;6.57;;;2.58;;
28605;SDS011;46498;49.968;7.754;2022-07-29T23:05:34;5.62;;;2.20;;
28605;SDS011;46498;49.968;7.754;2022-07-29T23:10:35;6.22;;;2.55;;
28605;SDS011;46498;49.968;7.754;2022-07-29T23:15:36;6.07;;;2.45;;
28605;SDS011;46498;49.968;7.754;2022-07-29T23:20:37;5.87;;;2.20;;
28605;SDS011;46498;49.968;7.754;2022-07-29T23:25:38;7.40;;;2.92;;
28605;SDS011;46498;49.968;7.754;2022-07-29T23:30:40;9.05;;;3.10;;
28605;SDS011;46498;49.968;7.754;2022-07-29T23:35:41;11.45;;;3.60;;
28605;SDS011;46498;49.968;7.754;2022-07-29T23:40:42;9.55;;;4.82;;
28605;SDS011;46498;49.968;7.754;2022-07-29T23:45:43;7.82;;;3.40;;
28605;SDS011;46498;49.968;7.754;2022-07-29T23:50:49;13.43;;;4.40;;
28605;SDS011;46498;49.968;7.754;2022-07-29T23:55:50;10.23;;;4.70;;
